METAR stanice u blizini

 

LYBE - Beograd / Surčin, Srbija
Ažurirano: 13/05/2021 07:00
Vedro
Vedro
 Pravac vetra ZJZ
Vetar: ZJZ 13 km/h
Temperatura: 13°C
Tačka rose: 12°C
Vlažnost: 94%
Pritisak: 1006 hPa
Pregled: Vedro
Vidljivost: greater than 10 km
2021/05/13 05:00 LYBE 130500Z 25007KT CAVOK 13/12 Q1006 NOSIG
LYBT - Beograd / Batajnica, Srbija
Ažurirano: 13/05/2021 07:00
Partly Cloudy
Partly Cloudy
 Pravac vetra J
Vetar: J 9 km/h
Temperatura: 12°C
Tačka rose: 12°C
Vlažnost: 100%
Pritisak: 1006 hPa
Oblaci: Partly Cloudy
Vidljivost: 7 km
2021/05/13 05:00 LYBT 130500Z 19005KT 140V210 7000 NSC 12/12 Q1006 TEMPO 5000 SHRA SCT030TCU SCT040
LYVR - Vršac, Srbija
Ažurirano: 13/05/2021 07:00
Partly Cloudy
Partly Cloudy
 Pravac vetra JJI
Vetar: JJI 13 km/h
Temperatura: 14°C
Tačka rose: 13°C
Vlažnost: 94%
Pritisak: 1006 hPa
Oblaci: Partly Cloudy
Vidljivost: 10 km
Cloud details: Few Clouds 488 m
Few Clouds 610 m
Partly Cloudy 1219 m
2021/05/13 05:00 LYVR 130500Z 16007KT 9999 FEW016 FEW020TCU SCT040 14/13 Q1006 NOSIG
 
LYKV - Lađevci, Srbija
Ažurirano: 13/05/2021 07:00
Magla, Oblačno
Magla, Oblačno
 Pravac vetra calm
Vetar: Tišina
Temperatura: 11°C
Tačka rose: 11°C
Vlažnost: 100%
Pritisak: 1007 hPa
Pregled: Magla
Oblaci: Oblačno
Vidljivost: 1 km
Cloud details: Oblačno 61 m
2021/05/13 05:00 LYKV 130500Z 00000KT 0800 R31/0500N R13/0650D FG VV002 11/11 Q1007 BECMG 1200 BR BKN003
LYNI - Niš, Srbija
Ažurirano: 13/05/2021 07:00
Mist, Pretežno oblačno
Mist, Pretežno oblačno
 Pravac vetra JJZ
Vetar: JJZ 6 km/h
Temperatura: 12°C
Tačka rose: 12°C
Vlažnost: 100%
Pritisak: 1008 hPa
Pregled: Mist
Oblaci: Mostly Cloudy
Vidljivost: 5 km
Cloud details: Mostly Cloudy 91 m
2021/05/13 05:00 LYNI 130500Z 20003KT 150V240 5000 BR BKN003 12/12 Q1008 BECMG FM0600 7000 NSW SCT010
BKPR - Priština, Srbija
Ažurirano: 13/05/2021 07:00
Few Clouds
Few Clouds
 Pravac vetra calm
Vetar: Tišina
Temperatura: 10°C
Tačka rose: 4°C
Vlažnost: 67%
Pritisak: 1008 hPa
Oblaci: Few Clouds
Vidljivost: 10 km
Cloud details: Few Clouds 2743 m
2021/05/13 05:00 BKPR 130500Z 00000KT 9999 FEW090 10/04 Q1008 NOSIG
 
LHPP - Pecs / Pogany, Hungary
Ažurirano: 13/05/2021 06:45
Partly Cloudy
Partly Cloudy
 Pravac vetra ZJZ
Vetar: ZJZ 11 km/h
Temperatura: 12°C
Tačka rose: 11°C
Vlažnost: 94%
Pritisak: 1004 hPa
Oblaci: Partly Cloudy
Vidljivost: 10 km
Cloud details: Few Clouds 305 m
Partly Cloudy 1006 m
2021/05/13 04:45 LHPP 130445Z 24006KT 9999 FEW010 SCT033 12/11 Q1004
LHUD - Szeged, Hungary
Ažurirano: 04/07/2019 01:45
NOT Current
Vedro
Vedro
 Pravac vetra S
Vetar: S 7 km/h
Temperatura: 18°C
Tačka rose: 13°C
Vlažnost: 73%
Pritisak: 1019 hPa
Pregled: Vedro
Vidljivost: greater than 10 km
2019/07/03 23:45 LHUD 032345Z 35004KT CAVOK 18/13 Q1019
LRTR - Timisoara, Romania
Ažurirano: 13/05/2021 07:00
Few Clouds
Few Clouds
 Pravac vetra JJI
Vetar: JJI 7 km/h
Temperatura: 12°C
Tačka rose: 12°C
Vlažnost: 100%
Pritisak: 1005 hPa
Oblaci: Few Clouds
Vidljivost: 7 km
Cloud details: Few Clouds 61 m
Partly Cloudy 1036 m
Few Clouds 1463 m
2021/05/13 05:00 LRTR 130500Z 16004KT 7000 FEW002 SCT034 FEW048CB 12/12 Q1005 NOSIG
 
LRCV - Craiova, Romania
Ažurirano: 13/05/2021 07:00
Oblačno
Oblačno
 Pravac vetra ISI
Vetar: ISI 15 km/h
Temperatura: 12°C
Tačka rose: 10°C
Vlažnost: 88%
Pritisak: 1007 hPa
Oblaci: Oblačno
Vidljivost: 10 km
Cloud details: Partly Cloudy 152 m
Oblačno 640 m
2021/05/13 05:00 LRCV 130500Z 06008KT 9999 SCT005 OVC021 12/10 Q1007 R09/29//95
LBSF - Sofia, Bulgaria
Ažurirano: 13/05/2021 07:00
Magla, Oblačno
Magla, Oblačno
 Pravac vetra S
Vetar: S 6 km/h
Temperatura: 11°C
Tačka rose: 10°C
Vlažnost: 94%
Pritisak: 1008 hPa
Pregled: Magla
Oblaci: Oblačno
Vidljivost: 1 km
Cloud details: Mostly Cloudy 30 m
Oblačno 122 m
2021/05/13 05:00 LBSF 130500Z 36003KT 330V040 0800 0250W R27/P2000N FG BKN001 OVC004 11/10 Q1008 TEMPO 0800 FG
LWSK - Skoplje, Makedonija
Ažurirano: 13/05/2021 07:00
Few Clouds
Few Clouds
 Pravac vetra calm
Vetar: Tišina
Temperatura: 10°C
Tačka rose: 9°C
Vlažnost: 94%
Pritisak: 1009 hPa
Oblaci: Few Clouds
Vidljivost: 10 km
Cloud details: Few Clouds 1524 m
2021/05/13 05:00 LWSK 130500Z 00000KT 9999 FEW050 10/09 Q1009 NOSIG
 
LYPG - Podgorica, Crna Gora
Ažurirano: 13/05/2021 07:00
Mostly Cloudy
Mostly Cloudy
 Pravac vetra varies
Vetar: varies 4 km/h
Temperatura: 14°C
Tačka rose: 9°C
Vlažnost: 72%
Pritisak: 1008 hPa
Oblaci: Mostly Cloudy
Vidljivost: 10 km
Cloud details: Partly Cloudy 1524 m
Mostly Cloudy 2438 m
2021/05/13 05:00 LYPG 130500Z VRB02KT 9999 SCT050 BKN080 14/09 Q1008 NOSIG
LQSA - Sarajevo, Bosna i Hercegovina
Ažurirano: 13/05/2021 07:00
Slaba kiša, Pretežno oblačno
Slaba kiša, Pretežno oblačno
 Pravac vetra SZ
Vetar: SZ 4 km/h
Temperatura: 11°C
Tačka rose: 8°C
Vlažnost: 82%
Pritisak: 1006 hPa
Pregled: Light Rain
Oblaci: Mostly Cloudy
Vidljivost: 10 km
Cloud details: Mostly Cloudy 1676 m
2021/05/13 05:00 LQSA 130500Z 32002KT 9999 -RA BKN055 11/08 Q1006
LDOS - Osijek, Hrvatksa
Ažurirano: 13/05/2021 07:00
Partly Cloudy
Partly Cloudy
 Pravac vetra JJZ
Vetar: JJZ 13 km/h
Temperatura: 13°C
Tačka rose: 12°C
Vlažnost: 94%
Pritisak: 1005 hPa
Oblaci: Partly Cloudy
Vidljivost: 10 km
Cloud details: Partly Cloudy 1219 m
2021/05/13 05:00 LDOS 130500Z 20007KT 9999 SCT040 13/12 Q1005